sensor_id;sensor_type;location;lat;lon;timestamp;pressure;altitude;pressure_sealevel;temperature;humidity
39209;BME280;24929;51.982;4.664;2022-08-21T00:00:37;76405.28;;;-143.36;nan
39209;BME280;24929;51.982;4.664;2022-08-21T00:03:07;76381.19;;;-143.36;nan
39209;BME280;24929;51.982;4.664;2022-08-21T00:05:37;76363.13;;;-143.36;nan
39209;BME280;24929;51.982;4.664;2022-08-21T00:08:03;76393.25;;;-143.36;nan
39209;BME280;24929;51.982;4.664;2022-08-21T00:10:29;76399.25;;;-143.36;nan
39209;BME280;24929;51.982;4.664;2022-08-21T00:12:55;76403.28;;;-143.36;nan
39209;BME280;24929;51.982;4.664;2022-08-21T00:15:27;76367.16;;;-143.36;nan
39209;BME280;24929;51.982;4.664;2022-08-21T00:17:54;76405.28;;;-143.36;nan
39209;BME280;24929;51.982;4.664;2022-08-21T00:20:20;76401.25;;;-143.36;nan
39209;BME280;24929;51.982;4.664;2022-08-21T00:22:46;76429.34;;;-143.36;nan
39209;BME280;24929;51.982;4.664;2022-08-21T00:25:13;76415.31;;;-143.36;nan
39209;BME280;24929;51.982;4.664;2022-08-21T00:27:40;76415.31;;;-143.36;nan
39209;BME280;24929;51.982;4.664;2022-08-21T00:30:08;76409.28;;;-143.36;nan
39209;BME280;24929;51.982;4.664;2022-08-21T00:32:36;76399.25;;;-143.36;nan
39209;BME280;24929;51.982;4.664;2022-08-21T00:35:04;76417.31;;;-143.36;nan
39209;BME280;24929;51.982;4.664;2022-08-21T00:37:29;76411.31;;;-143.36;nan
39209;BME280;24929;51.982;4.664;2022-08-21T00:39:54;76419.31;;;-143.36;nan
39209;BME280;24929;51.982;4.664;2022-08-21T00:42:20;76399.25;;;-143.36;nan
39209;BME280;24929;51.982;4.664;2022-08-21T00:44:47;76383.22;;;-143.36;nan
39209;BME280;24929;51.982;4.664;2022-08-21T00:47:13;76411.31;;;-143.36;nan
39209;BME280;24929;51.982;4.664;2022-08-21T00:49:39;76413.31;;;-143.36;nan
39209;BME280;24929;51.982;4.664;2022-08-21T00:52:07;76407.28;;;-143.36;nan
39209;BME280;24929;51.982;4.664;2022-08-21T00:54:34;76451.44;;;-143.36;nan
39209;BME280;24929;51.982;4.664;2022-08-21T00:57:02;76411.31;;;-143.36;nan
39209;BME280;24929;51.982;4.664;2022-08-21T00:59:33;76391.22;;;-143.36;nan
39209;BME280;24929;51.982;4.664;2022-08-21T01:02:00;76431.38;;;-143.36;nan
39209;BME280;24929;51.982;4.664;2022-08-21T01:04:25;76417.31;;;-143.36;nan
39209;BME280;24929;51.982;4.664;2022-08-21T01:06:51;76419.31;;;-143.36;nan
39209;BME280;24929;51.982;4.664;2022-08-21T01:09:17;76429.34;;;-143.36;nan
39209;BME280;24929;51.982;4.664;2022-08-21T01:11:43;76435.38;;;-143.36;nan
39209;BME280;24929;51.982;4.664;2022-08-21T01:14:09;76387.22;;;-143.36;nan
39209;BME280;24929;51.982;4.664;2022-08-21T01:16:38;76401.25;;;-143.36;nan
39209;BME280;24929;51.982;4.664;2022-08-21T01:19:05;76427.34;;;-143.36;nan
39209;BME280;24929;51.982;4.664;2022-08-21T01:21:31;76457.44;;;-143.36;nan
39209;BME280;24929;51.982;4.664;2022-08-21T01:23:57;76443.41;;;-143.36;nan
39209;BME280;24929;51.982;4.664;2022-08-21T01:26:26;76375.19;;;-143.36;nan
39209;BME280;24929;51.982;4.664;2022-08-21T01:29:16;76411.31;;;-143.36;nan
39209;BME280;24929;51.982;4.664;2022-08-21T01:31:45;76455.44;;;-143.36;nan
39209;BME280;24929;51.982;4.664;2022-08-21T01:34:12;76417.31;;;-143.36;nan
39209;BME280;24929;51.982;4.664;2022-08-21T01:36:38;76465.47;;;-143.36;nan
39209;BME280;24929;51.982;4.664;2022-08-21T01:39:04;76435.38;;;-143.36;nan
39209;BME280;24929;51.982;4.664;2022-08-21T01:41:30;76439.41;;;-143.36;nan
39209;BME280;24929;51.982;4.664;2022-08-21T01:43:56;76449.44;;;-143.36;nan
39209;BME280;24929;51.982;4.664;2022-08-21T01:46:21;76425.34;;;-143.36;nan
39209;BME280;24929;51.982;4.664;2022-08-21T01:48:46;76417.31;;;-143.36;nan
39209;BME280;24929;51.982;4.664;2022-08-21T01:51:12;76405.28;;;-143.36;nan
39209;BME280;24929;51.982;4.664;2022-08-21T01:53:37;76423.34;;;-143.36;nan
39209;BME280;24929;51.982;4.664;2022-08-21T01:56:06;76415.31;;;-143.36;nan
39209;BME280;24929;51.982;4.664;2022-08-21T01:58:31;76467.50;;;-143.36;nan
39209;BME280;24929;51.982;4.664;2022-08-21T02:00:59;76517.66;;;-143.36;nan
39209;BME280;24929;51.982;4.664;2022-08-21T02:03:24;76515.66;;;-143.36;nan
39209;BME280;24929;51.982;4.664;2022-08-21T02:05:49;76497.59;;;-143.36;nan
39209;BME280;24929;51.982;4.664;2022-08-21T02:08:15;76533.72;;;-143.36;nan
39209;BME280;24929;51.982;4.664;2022-08-21T02:10:40;76523.66;;;-143.36;nan
39209;BME280;24929;51.982;4.664;2022-08-21T02:13:06;76497.59;;;-143.36;nan
39209;BME280;24929;51.982;4.664;2022-08-21T02:15:32;76537.72;;;-143.36;nan
39209;BME280;24929;51.982;4.664;2022-08-21T02:17:59;76471.50;;;-143.36;nan
39209;BME280;24929;51.982;4.664;2022-08-21T02:20:29;76447.41;;;-143.36;nan
39209;BME280;24929;51.982;4.664;2022-08-21T02:22:55;76465.47;;;-143.36;nan
39209;BME280;24929;51.982;4.664;2022-08-21T02:25:22;76495.59;;;-143.36;nan
39209;BME280;24929;51.982;4.664;2022-08-21T02:27:48;76489.56;;;-143.36;nan
39209;BME280;24929;51.982;4.664;2022-08-21T02:30:20;76453.44;;;-143.36;nan
39209;BME280;24929;51.982;4.664;2022-08-21T02:32:46;76499.59;;;-143.36;nan
39209;BME280;24929;51.982;4.664;2022-08-21T02:35:12;76511.63;;;-143.36;nan
39209;BME280;24929;51.982;4.664;2022-08-21T02:37:56;76477.53;;;-143.36;nan
39209;BME280;24929;51.982;4.664;2022-08-21T02:40:28;76489.56;;;-143.36;nan
39209;BME280;24929;51.982;4.664;2022-08-21T02:42:54;76543.75;;;-143.36;nan
39209;BME280;24929;51.982;4.664;2022-08-21T02:45:19;76517.66;;;-143.36;nan
39209;BME280;24929;51.982;4.664;2022-08-21T02:47:54;76487.56;;;-143.36;nan
39209;BME280;24929;51.982;4.664;2022-08-21T02:50:24;76487.56;;;-143.36;nan
39209;BME280;24929;51.982;4.664;2022-08-21T02:52:50;76525.69;;;-143.36;nan
39209;BME280;24929;51.982;4.664;2022-08-21T02:55:22;76501.59;;;-143.36;nan
39209;BME280;24929;51.982;4.664;2022-08-21T02:57:47;76505.63;;;-143.36;nan
39209;BME280;24929;51.982;4.664;2022-08-21T03:00:14;76503.59;;;-143.36;nan
39209;BME280;24929;51.982;4.664;2022-08-21T03:02:40;76569.81;;;-143.36;nan
39209;BME280;24929;51.982;4.664;2022-08-21T03:05:08;76551.75;;;-143.36;nan
39209;BME280;24929;51.982;4.664;2022-08-21T03:07:35;76597.91;;;-143.36;nan
39209;BME280;24929;51.982;4.664;2022-08-21T03:10:00;76587.88;;;-143.36;nan
39209;BME280;24929;51.982;4.664;2022-08-21T03:12:26;76561.81;;;-143.36;nan
39209;BME280;24929;51.982;4.664;2022-08-21T03:14:51;76567.81;;;-143.36;nan
39209;BME280;24929;51.982;4.664;2022-08-21T03:17:16;76581.88;;;-143.36;nan
39209;BME280;24929;51.982;4.664;2022-08-21T03:19:42;76587.88;;;-143.36;nan
39209;BME280;24929;51.982;4.664;2022-08-21T03:22:07;76561.81;;;-143.36;nan
39209;BME280;24929;51.982;4.664;2022-08-21T03:24:32;76577.84;;;-143.36;nan
39209;BME280;24929;51.982;4.664;2022-08-21T03:26:58;76593.91;;;-143.36;nan
39209;BME280;24929;51.982;4.664;2022-08-21T03:29:23;76553.78;;;-143.36;nan
39209;BME280;24929;51.982;4.664;2022-08-21T03:31:48;76553.78;;;-143.36;nan
39209;BME280;24929;51.982;4.664;2022-08-21T03:34:14;76555.78;;;-143.36;nan
39209;BME280;24929;51.982;4.664;2022-08-21T03:36:39;76579.88;;;-143.36;nan
39209;BME280;24929;51.982;4.664;2022-08-21T03:39:05;76559.78;;;-143.36;nan
39209;BME280;24929;51.982;4.664;2022-08-21T03:41:30;76577.84;;;-143.36;nan
39209;BME280;24929;51.982;4.664;2022-08-21T03:43:55;76591.91;;;-143.36;nan
39209;BME280;24929;51.982;4.664;2022-08-21T03:46:21;76567.81;;;-143.36;nan
39209;BME280;24929;51.982;4.664;2022-08-21T03:48:46;76569.81;;;-143.36;nan
39209;BME280;24929;51.982;4.664;2022-08-21T03:51:12;76609.97;;;-143.36;nan
39209;BME280;24929;51.982;4.664;2022-08-21T03:53:37;76549.75;;;-143.36;nan
39209;BME280;24929;51.982;4.664;2022-08-21T03:56:03;76523.66;;;-143.36;nan
39209;BME280;24929;51.982;4.664;2022-08-21T03:58:29;76513.63;;;-143.36;nan
39209;BME280;24929;51.982;4.664;2022-08-21T04:00:58;76531.69;;;-143.36;nan
39209;BME280;24929;51.982;4.664;2022-08-21T04:03:24;76539.72;;;-143.36;nan
39209;BME280;24929;51.982;4.664;2022-08-21T04:05:50;76545.75;;;-143.36;nan
39209;BME280;24929;51.982;4.664;2022-08-21T04:08:16;76555.78;;;-143.36;nan
39209;BME280;24929;51.982;4.664;2022-08-21T04:10:47;76509.63;;;-143.36;nan
39209;BME280;24929;51.982;4.664;2022-08-21T04:13:13;76539.72;;;-143.36;nan
39209;BME280;24929;51.982;4.664;2022-08-21T04:15:39;76523.66;;;-143.36;nan
39209;BME280;24929;51.982;4.664;2022-08-21T04:18:05;76539.72;;;-143.36;nan
39209;BME280;24929;51.982;4.664;2022-08-21T04:20:31;76545.75;;;-143.36;nan
39209;BME280;24929;51.982;4.664;2022-08-21T04:22:56;76553.78;;;-143.36;nan
39209;BME280;24929;51.982;4.664;2022-08-21T04:25:23;76547.75;;;-143.36;nan
39209;BME280;24929;51.982;4.664;2022-08-21T04:27:48;76571.84;;;-143.36;nan
39209;BME280;24929;51.982;4.664;2022-08-21T04:30:14;76529.69;;;-143.36;nan
39209;BME280;24929;51.982;4.664;2022-08-21T04:32:46;76495.59;;;-143.36;nan
39209;BME280;24929;51.982;4.664;2022-08-21T04:35:14;76505.63;;;-143.36;nan
39209;BME280;24929;51.982;4.664;2022-08-21T04:37:40;76535.72;;;-143.36;nan
39209;BME280;24929;51.982;4.664;2022-08-21T04:40:06;76533.72;;;-143.36;nan
39209;BME280;24929;51.982;4.664;2022-08-21T04:42:32;76605.94;;;-143.36;nan
39209;BME280;24929;51.982;4.664;2022-08-21T04:44:58;76603.94;;;-143.36;nan
39209;BME280;24929;51.982;4.664;2022-08-21T04:47:23;76597.91;;;-143.36;nan
39209;BME280;24929;51.982;4.664;2022-08-21T04:49:49;76585.88;;;-143.36;nan
39209;BME280;24929;51.982;4.664;2022-08-21T04:52:19;76543.75;;;-143.36;nan
39209;BME280;24929;51.982;4.664;2022-08-21T04:54:46;76571.84;;;-143.36;nan
39209;BME280;24929;51.982;4.664;2022-08-21T04:57:15;76589.91;;;-143.36;nan
39209;BME280;24929;51.982;4.664;2022-08-21T04:59:45;76559.78;;;-143.36;nan
39209;BME280;24929;51.982;4.664;2022-08-21T05:02:12;76613.97;;;-143.36;nan
39209;BME280;24929;51.982;4.664;2022-08-21T05:04:51;76561.81;;;-143.36;nan
39209;BME280;24929;51.982;4.664;2022-08-21T05:07:20;76551.75;;;-143.36;nan
39209;BME280;24929;51.982;4.664;2022-08-21T05:09:47;76579.88;;;-143.36;nan
39209;BME280;24929;51.982;4.664;2022-08-21T05:12:13;76565.81;;;-143.36;nan
39209;BME280;24929;51.982;4.664;2022-08-21T05:14:38;76507.63;;;-143.36;nan
39209;BME280;24929;51.982;4.664;2022-08-21T05:17:04;76525.69;;;-143.36;nan
39209;BME280;24929;51.982;4.664;2022-08-21T05:19:30;76529.69;;;-143.36;nan
39209;BME280;24929;51.982;4.664;2022-08-21T05:21:55;76505.63;;;-143.36;nan
39209;BME280;24929;51.982;4.664;2022-08-21T05:24:21;76511.63;;;-143.36;nan
39209;BME280;24929;51.982;4.664;2022-08-21T05:26:46;76461.47;;;-143.36;nan
39209;BME280;24929;51.982;4.664;2022-08-21T05:29:13;76465.47;;;-143.36;nan
39209;BME280;24929;51.982;4.664;2022-08-21T05:31:39;76399.25;;;-143.36;nan
39209;BME280;24929;51.982;4.664;2022-08-21T05:40:02;76264.81;;;-143.36;nan
39209;BME280;24929;51.982;4.664;2022-08-21T05:42:28;76258.78;;;-143.36;nan
39209;BME280;24929;51.982;4.664;2022-08-21T05:44:53;76325.00;;;-143.36;nan
39209;BME280;24929;51.982;4.664;2022-08-21T05:47:19;76327.03;;;-143.36;nan
39209;BME280;24929;51.982;4.664;2022-08-21T05:49:44;76349.09;;;-143.36;nan
39209;BME280;24929;51.982;4.664;2022-08-21T05:52:09;76411.31;;;-143.36;nan
39209;BME280;24929;51.982;4.664;2022-08-21T05:54:36;76308.97;;;-143.36;nan
39209;BME280;24929;51.982;4.664;2022-08-21T05:57:02;76355.13;;;-143.36;nan
